Tetonia, ID (83424)

3:08 PM MST on December 26, 2014 (GMT -0700)
Saddlehorn Ranch 2mi N of Airport | Change Station
CLOSE
Current Station
Personal Weather Station
Location: Driggs, ID
Elevation: 6257 ft
Nearby Weather Stations

Elev 6257 ft 43.77 °N, 111.08 °W | Updated 2 seconds ago

Mostly Cloudy
Mostly Cloudy
15.9 °F
Feels Like 16 °F
N
3.0
Wind Variable Wind from ESE
Gusts 3.0 mph

Today
High -- | Low -- °F
--% Chance of Precip.
Yesterday
High -- | Low -- °F
Precip. -- in
7:57 AM 4:52 PM
Waxing Crescent, 29% visible
Pressure 30.20 in
Visibility 10.0 miles
Clouds Overcast 6000 ft
Windchill 16 °F
Dew Point 10 °F
Humidity 76%
Rainfall 0.02 in
Snow Depth Not available.
UV 0 out of 12
Pollen .10 out of 12
Air Quality Not available.
Flu Activity Not available.
METAR KDIJ 262156Z AUTO 00000KT 10SM OVC060 M10/M14 A2999 RMK AO2 T11001138 SLP226

More Conditions Fewer Conditions

Pressure 30.20 in
Visibility 10.0 miles
Clouds Overcast 6000 ft
Windchill 16 °F
Dew Point 10 °F
Humidity 76%
Rainfall 0.02 in
Snow Depth Not available.
UV 0 out of 12
Pollen .10 out of 12
Air Quality Not available.
Flu Activity Not available.
METAR KDIJ 262156Z AUTO 00000KT 10SM OVC060 M10/M14 A2999 RMK AO2 T11001138 SLP226

More Conditions Fewer Conditions

10-Day Weather Forecast

Almanac

Astronomy

Dec. 26, 2014 Rise Set
Actual Time
Civil Twilight
Nautical Twilight
Astronomical Twilight
Moon
Length of Visible Light
Length of Day
Tomorrow will be .
, % of the Moon is Illuminated

Today's Extremes

State Highs State Lows

Community

WunderPhotos

Upload Photos

1,780,731 photos uploaded!

WunderBlogs® & News

Nearby

Air Quality

  Air Quality AQ Index Pollutant
Not available.

Snow Depth

Station Depth Elevation

Earthquake Activity

City Distance Mag. Time & Date
Minimum magnitude displayed is 2.5.

Coastal Water Temperatures

Place Temperature

Nearby Weather Stations